createdAt,value
2018-06-01T00:00:31.087Z,35.27
2018-06-01T00:03:00.391Z,35.40
2018-06-01T00:05:30.109Z,37.80
2018-06-01T00:08:00.459Z,39.03
2018-06-01T00:10:29.814Z,39.50
2018-06-01T00:12:59.424Z,40.10
2018-06-01T00:15:28.872Z,38.30
2018-06-01T00:17:58.024Z,40.67
2018-06-01T00:20:28.670Z,41.60
2018-06-01T00:22:57.794Z,40.33
2018-06-01T00:25:26.914Z,42.20
2018-06-01T00:27:56.430Z,40.60
2018-06-01T00:30:25.550Z,39.77
2018-06-01T00:32:54.661Z,41.50
2018-06-01T00:35:23.793Z,41.97
2018-06-01T00:37:52.931Z,43.03
2018-06-01T00:40:22.053Z,44.23
2018-06-01T00:42:55.405Z,42.00
2018-06-01T00:45:24.521Z,42.17
2018-06-01T00:47:53.641Z,47.17
2018-06-01T00:50:23.409Z,46.73
2018-06-01T00:52:53.485Z,45.40
2018-06-01T00:55:24.390Z,46.73
2018-06-01T00:57:53.510Z,47.77
2018-06-01T01:00:22.628Z,48.37
2018-06-01T01:02:52.023Z,48.53
2018-06-01T01:05:21.143Z,46.67
2018-06-01T01:07:50.257Z,49.57
2018-06-01T01:10:19.471Z,48.97
2018-06-01T01:12:48.593Z,48.03
2018-06-01T01:15:17.722Z,48.90
2018-06-01T01:17:47.246Z,49.10
2018-06-01T01:20:16.475Z,47.90
2018-06-01T01:22:45.587Z,49.47
2018-06-01T01:25:14.928Z,48.13
2018-06-01T01:27:43.916Z,52.40
2018-06-01T01:30:12.874Z,53.50
2018-06-01T01:32:42.223Z,54.87
2018-06-01T01:35:11.137Z,50.90
2018-06-01T01:37:42.293Z,52.00
2018-06-01T01:40:11.140Z,51.67
2018-06-01T01:42:39.989Z,52.20
2018-06-01T01:45:11.133Z,56.13
2018-06-01T01:47:40.001Z,55.43
2018-06-01T01:50:08.849Z,53.63
2018-06-01T01:52:37.723Z,53.83
2018-06-01T01:55:06.598Z,54.20
2018-06-01T01:57:35.469Z,55.70
2018-06-01T02:00:04.721Z,59.07
2018-06-01T02:02:35.794Z,58.00
2018-06-01T02:05:04.901Z,58.30
2018-06-01T02:07:33.877Z,61.80
2018-06-01T02:10:02.993Z,62.27
2018-06-01T02:12:32.141Z,61.83
2018-06-01T02:15:01.262Z,61.07
2018-06-01T02:17:30.386Z,60.17
2018-06-01T02:19:59.806Z,60.60
2018-06-01T02:22:28.931Z,60.67
2018-06-01T02:24:58.113Z,57.63
2018-06-01T02:27:27.550Z,57.40
2018-06-01T02:29:56.679Z,59.23
2018-06-01T02:32:25.789Z,57.37
2018-06-01T02:34:55.225Z,54.50
2018-06-01T02:37:24.346Z,59.73
2018-06-01T02:39:53.478Z,57.50
2018-06-01T02:42:22.610Z,58.97
2018-06-01T02:44:51.733Z,56.50
2018-06-01T02:47:20.856Z,59.43
2018-06-01T02:49:49.985Z,62.40
2018-06-01T02:52:19.116Z,61.73
2018-06-01T02:54:48.328Z,71.77
2018-06-01T02:57:17.849Z,67.17
2018-06-01T02:59:46.977Z,67.03
2018-06-01T03:02:16.066Z,70.77
2018-06-01T03:04:45.498Z,72.67
2018-06-01T03:07:14.615Z,74.47
2018-06-01T03:09:43.738Z,75.03
2018-06-01T03:12:12.877Z,72.73
2018-06-01T03:14:41.990Z,79.43
2018-06-01T03:17:13.222Z,78.13
2018-06-01T03:19:42.346Z,78.70
2018-06-01T03:22:15.639Z,77.00
2018-06-01T03:24:44.769Z,80.13
2018-06-01T03:27:13.867Z,81.40
2018-06-01T03:29:43.174Z,79.60
2018-06-01T03:32:12.435Z,80.80
2018-06-01T03:34:41.485Z,84.77
2018-06-01T03:37:11.325Z,80.03
2018-06-01T03:39:40.327Z,85.17
2018-06-01T03:42:09.310Z,82.73
2018-06-01T03:44:38.708Z,84.77
2018-06-01T03:47:07.698Z,87.00
2018-06-01T03:49:36.725Z,84.67
2018-06-01T03:52:05.771Z,86.03
2018-06-01T03:54:34.805Z,83.43
2018-06-01T03:57:03.835Z,80.60
2018-06-01T03:59:33.142Z,80.10
2018-06-01T04:02:02.158Z,73.10
2018-06-01T04:04:31.289Z,68.00
2018-06-01T04:07:00.290Z,65.23
2018-06-01T04:09:29.317Z,65.03
2018-06-01T04:11:58.334Z,64.00
2018-06-01T04:14:27.725Z,63.50
2018-06-01T04:16:57.660Z,64.83
2018-06-01T04:19:26.713Z,66.63
2018-06-01T04:21:55.797Z,67.20
2018-06-01T04:24:25.301Z,67.47
2018-06-01T04:26:54.340Z,67.37
2018-06-01T04:29:23.361Z,69.07
2018-06-01T04:31:52.373Z,68.83
2018-06-01T04:34:21.817Z,71.67
2018-06-01T04:36:50.864Z,72.20
2018-06-01T04:39:19.869Z,75.57
2018-06-01T04:41:49.209Z,74.47
2018-06-01T04:44:18.785Z,75.50
2018-06-01T04:46:47.824Z,76.97
2018-06-01T04:49:17.362Z,78.20
2018-06-01T04:51:46.442Z,77.67
2018-06-01T04:54:15.518Z,74.33
2018-06-01T04:56:44.571Z,75.70
2018-06-01T04:59:14.980Z,75.70
2018-06-01T05:01:44.322Z,72.83
2018-06-01T05:04:14.883Z,77.80
2018-06-01T05:06:46.197Z,76.57
2018-06-01T05:09:17.284Z,74.63
2018-06-01T05:11:48.518Z,79.43
2018-06-01T05:14:19.457Z,75.87
2018-06-01T05:16:48.436Z,82.20
2018-06-01T05:19:17.325Z,84.87
2018-06-01T05:21:46.369Z,79.10
2018-06-01T05:24:17.228Z,81.70
2018-06-01T05:26:48.381Z,77.37
2018-06-01T05:29:19.821Z,80.37
2018-06-01T05:31:53.229Z,81.70
2018-06-01T05:34:25.311Z,78.50
2018-06-01T05:36:58.697Z,79.80
2018-06-01T05:39:29.899Z,77.60
2018-06-01T05:41:58.884Z,82.30
2018-06-01T05:44:30.445Z,80.57
2018-06-01T05:46:59.295Z,78.80
2018-06-01T05:49:28.130Z,78.77
2018-06-01T05:51:57.352Z,80.00
2018-06-01T05:54:26.303Z,75.30
2018-06-01T05:56:55.109Z,78.37
2018-06-01T05:59:28.521Z,77.93
2018-06-01T06:01:59.636Z,77.00
2018-06-01T06:04:28.968Z,80.30
2018-06-01T06:07:00.022Z,77.97
2018-06-01T06:09:29.209Z,68.00
2018-06-01T06:11:58.045Z,69.07
2018-06-01T06:14:29.441Z,65.30
2018-06-01T06:16:58.273Z,63.23
2018-06-01T06:19:27.261Z,65.37
2018-06-01T06:21:56.417Z,62.93
2018-06-01T06:24:25.349Z,65.23
2018-06-01T06:26:54.215Z,60.93
2018-06-01T06:29:25.710Z,61.57
2018-06-01T06:31:54.542Z,58.67
2018-06-01T06:34:23.361Z,57.80
2018-06-01T06:36:54.813Z,58.30
2018-06-01T06:39:25.921Z,59.40
2018-06-01T06:41:55.113Z,59.30
2018-06-01T06:44:24.021Z,61.43
2018-06-01T06:46:57.157Z,62.80
2018-06-01T06:49:28.297Z,63.70
2018-06-01T06:51:57.454Z,61.20
2018-06-01T06:54:26.311Z,65.90
2018-06-01T06:56:55.253Z,46.73
2018-06-01T06:59:24.377Z,49.47
2018-06-01T07:01:53.214Z,47.40
2018-06-01T07:04:22.171Z,45.90
2018-06-01T07:06:57.677Z,48.10
2018-06-01T07:09:26.611Z,47.93
2018-06-01T07:11:59.682Z,45.83
2018-06-01T07:14:29.159Z,46.83
2018-06-01T07:16:58.017Z,48.43
2018-06-01T07:19:26.845Z,46.27
2018-06-01T07:21:55.669Z,40.93
2018-06-01T07:24:24.512Z,38.23
2018-06-01T07:26:53.683Z,37.37
2018-06-01T07:29:22.509Z,35.17
2018-06-01T07:31:51.333Z,32.83
2018-06-01T07:34:20.275Z,33.33
2018-06-01T07:36:49.085Z,33.73
2018-06-01T07:39:21.389Z,35.87
2018-06-01T07:41:50.415Z,36.30
2018-06-01T07:44:19.667Z,37.13
2018-06-01T07:46:48.623Z,35.90
2018-06-01T07:49:17.463Z,35.80
2018-06-01T07:51:46.397Z,36.03
2018-06-01T07:54:15.215Z,39.07
2018-06-01T07:56:44.049Z,39.60
2018-06-01T07:59:13.170Z,41.57
2018-06-01T08:01:41.989Z,40.37
2018-06-01T08:04:11.222Z,39.67
2018-06-01T08:06:40.043Z,34.60
2018-06-01T08:09:08.876Z,32.43
2018-06-01T08:11:37.970Z,31.70
2018-06-01T08:14:06.793Z,29.30
2018-06-01T08:16:35.609Z,29.40
2018-06-01T08:19:04.766Z,28.77
2018-06-01T08:21:33.596Z,26.73
2018-06-01T08:24:02.414Z,24.70
2018-06-01T08:26:31.550Z,24.13
2018-06-01T08:29:00.357Z,24.60
2018-06-01T08:31:29.178Z,24.80
2018-06-01T08:33:58.315Z,28.33
2018-06-01T08:36:27.177Z,27.97
2018-06-01T08:38:56.008Z,26.07
2018-06-01T08:41:25.136Z,27.60
2018-06-01T08:43:53.977Z,26.73
2018-06-01T08:46:22.830Z,26.33
2018-06-01T08:48:52.071Z,28.67
2018-06-01T08:51:20.888Z,27.73
2018-06-01T08:53:49.698Z,27.67
2018-06-01T08:56:18.839Z,28.00
2018-06-01T08:58:47.981Z,25.03
2018-06-01T09:01:17.127Z,25.40
2018-06-01T09:03:46.534Z,27.00
2018-06-01T09:06:15.645Z,28.50
2018-06-01T09:08:44.859Z,28.90
2018-06-01T09:11:14.262Z,27.60
2018-06-01T09:13:43.374Z,25.43
2018-06-01T09:16:12.520Z,27.43
2018-06-01T09:18:42.537Z,26.60
2018-06-01T09:21:11.821Z,28.10
2018-06-01T09:23:41.084Z,26.77
2018-06-01T09:26:10.253Z,29.47
2018-06-01T09:28:39.404Z,26.30
2018-06-01T09:31:08.534Z,26.23
2018-06-01T09:33:37.667Z,22.10
2018-06-01T09:36:06.799Z,22.60
2018-06-01T09:38:35.917Z,22.60
2018-06-01T09:43:40.561Z,21.13
2018-06-01T09:46:10.125Z,19.27
2018-06-01T09:48:39.289Z,19.57
2018-06-01T09:51:08.434Z,18.70
2018-06-01T09:53:37.742Z,20.97
2018-06-01T09:56:07.043Z,22.00
2018-06-01T09:58:36.174Z,24.77
2018-06-01T10:01:10.568Z,25.77
2018-06-01T10:03:39.716Z,25.03
2018-06-01T10:06:08.870Z,25.63
2018-06-01T10:08:38.008Z,24.60
2018-06-01T10:11:08.075Z,23.43
2018-06-01T10:13:37.215Z,24.50
2018-06-01T10:16:07.243Z,26.30
2018-06-01T10:18:37.058Z,24.97
2018-06-01T10:21:06.230Z,26.00
2018-06-01T10:23:35.367Z,23.03
2018-06-01T10:26:04.491Z,23.83
2018-06-01T10:28:33.622Z,21.77
2018-06-01T10:31:02.773Z,22.80
2018-06-01T10:33:31.945Z,22.47
2018-06-01T10:36:01.066Z,21.97
2018-06-01T10:38:30.566Z,23.77
2018-06-01T10:41:00.671Z,21.90
2018-06-01T10:43:29.812Z,26.07
2018-06-01T10:45:58.934Z,26.00
2018-06-01T10:48:28.107Z,27.23
2018-06-01T10:50:57.584Z,26.23
2018-06-01T10:53:26.765Z,24.53
2018-06-01T10:55:55.915Z,24.50
2018-06-01T10:58:25.035Z,21.03
2018-06-01T11:00:54.166Z,22.20
2018-06-01T11:03:23.314Z,19.47
2018-06-01T11:05:52.460Z,22.07
2018-06-01T11:08:21.607Z,19.00
2018-06-01T11:10:50.766Z,20.13
2018-06-01T11:13:19.909Z,18.23
2018-06-01T11:15:49.049Z,17.90
2018-06-01T11:18:18.223Z,16.50
2018-06-01T11:20:47.427Z,17.07
2018-06-01T11:23:16.597Z,16.17
2018-06-01T11:25:45.726Z,14.33
2018-06-01T11:28:14.874Z,16.63
2018-06-01T11:30:44.004Z,18.00
2018-06-01T11:33:13.176Z,21.97
2018-06-01T11:35:42.728Z,21.63
2018-06-01T11:38:12.052Z,20.57
2018-06-01T11:40:41.180Z,20.00
2018-06-01T11:43:10.737Z,21.03
2018-06-01T11:45:39.846Z,19.50
2018-06-01T11:48:09.045Z,20.00
2018-06-01T11:50:38.525Z,19.83
2018-06-01T11:53:07.646Z,19.90
2018-06-01T11:55:36.781Z,19.27
2018-06-01T11:58:06.262Z,19.43
2018-06-01T12:00:35.374Z,18.63
2018-06-01T12:03:04.515Z,18.70
2018-06-01T12:05:33.638Z,19.23
2018-06-01T12:08:02.767Z,18.13
2018-06-01T12:10:31.874Z,17.30
2018-06-01T12:13:00.997Z,18.37
2018-06-01T12:15:30.113Z,18.97
2018-06-01T12:17:59.250Z,18.37
2018-06-01T12:20:28.397Z,18.07
2018-06-01T12:22:58.197Z,18.40
2018-06-01T12:25:27.419Z,19.80
2018-06-01T12:27:56.549Z,19.23
2018-06-01T12:30:25.679Z,16.60
2018-06-01T12:32:54.799Z,21.20
2018-06-01T12:35:23.922Z,19.70
2018-06-01T12:37:53.046Z,20.50
2018-06-01T12:40:22.170Z,20.50
2018-06-01T12:42:51.309Z,20.10
2018-06-01T12:45:20.431Z,18.30
2018-06-01T12:47:49.558Z,17.60
2018-06-01T12:50:19.060Z,17.93
2018-06-01T12:52:48.177Z,19.30
2018-06-01T12:55:17.297Z,20.10
2018-06-01T12:57:46.422Z,19.10
2018-06-01T13:00:15.537Z,19.63
2018-06-01T13:02:44.670Z,18.60
2018-06-01T13:05:13.799Z,18.87
2018-06-01T13:07:42.932Z,19.47
2018-06-01T13:10:12.063Z,18.90
2018-06-01T13:12:41.517Z,19.33
2018-06-01T13:15:10.683Z,19.17
2018-06-01T13:17:39.771Z,20.20
2018-06-01T13:20:08.901Z,20.27
2018-06-01T13:22:38.013Z,20.57
2018-06-01T13:25:08.098Z,21.33
2018-06-01T13:27:37.476Z,22.40
2018-06-01T13:30:06.606Z,23.50
2018-06-01T13:32:35.766Z,23.97
2018-06-01T13:35:05.418Z,23.93
2018-06-01T13:37:34.616Z,24.40
2018-06-01T13:40:03.746Z,25.33
2018-06-01T13:42:33.992Z,25.07
2018-06-01T13:45:03.107Z,27.30
2018-06-01T13:47:34.726Z,28.00
2018-06-01T13:50:04.991Z,27.93
2018-06-01T13:52:38.849Z,31.73
2018-06-01T13:55:07.963Z,29.67
2018-06-01T13:57:37.139Z,30.77
2018-06-01T14:00:06.279Z,27.40
2018-06-01T14:02:35.397Z,27.03
2018-06-01T14:05:05.065Z,28.30
2018-06-01T14:07:34.194Z,27.47
2018-06-01T14:10:03.324Z,28.53
2018-06-01T14:12:32.449Z,28.50
2018-06-01T14:15:01.931Z,29.40
2018-06-01T14:17:31.049Z,29.90
2018-06-01T14:20:00.173Z,29.60
2018-06-01T14:22:29.327Z,32.67
2018-06-01T14:24:58.469Z,31.13
2018-06-01T14:27:30.820Z,32.90
2018-06-01T14:30:00.077Z,31.37
2018-06-01T14:32:30.113Z,33.60
2018-06-01T14:34:59.288Z,31.27
2018-06-01T14:37:28.406Z,33.20
2018-06-01T14:39:57.523Z,33.23
2018-06-01T14:42:26.645Z,31.03
2018-06-01T14:44:56.146Z,31.60
2018-06-01T14:47:25.269Z,30.57
2018-06-01T14:49:54.401Z,30.37
2018-06-01T14:52:23.848Z,30.17
2018-06-01T14:54:53.015Z,28.10
2018-06-01T14:57:22.141Z,29.13
2018-06-01T14:59:51.653Z,29.07
2018-06-01T15:02:20.781Z,26.73
2018-06-01T15:04:49.957Z,27.17
2018-06-01T15:07:19.434Z,25.93
2018-06-01T15:09:48.562Z,26.30
2018-06-01T15:12:17.682Z,24.97
2018-06-01T15:15:00.753Z,25.93
2018-06-01T15:17:29.881Z,25.30
2018-06-01T15:19:59.025Z,25.17
2018-06-01T15:22:28.146Z,24.60
2018-06-01T15:24:57.272Z,25.77
2018-06-01T15:27:26.726Z,23.33
2018-06-01T15:29:55.851Z,25.43
2018-06-01T15:32:24.972Z,24.17
2018-06-01T15:34:54.140Z,23.40
2018-06-01T15:37:23.266Z,22.70
2018-06-01T15:39:52.389Z,24.67
2018-06-01T15:42:21.788Z,24.70
2018-06-01T15:44:50.911Z,24.13
2018-06-01T15:47:20.021Z,25.60
2018-06-01T15:49:49.448Z,25.30
2018-06-01T15:52:18.565Z,27.27
2018-06-01T15:54:47.687Z,24.70
2018-06-01T15:57:16.831Z,26.17
2018-06-01T15:59:45.946Z,28.03
2018-06-01T16:02:15.110Z,27.23
2018-06-01T16:04:44.738Z,25.13
2018-06-01T16:07:14.058Z,24.67
2018-06-01T16:09:43.177Z,26.03
2018-06-01T16:12:12.334Z,25.93
2018-06-01T16:14:41.454Z,26.00
2018-06-01T16:17:10.590Z,23.80
2018-06-01T16:19:39.725Z,24.20
2018-06-01T16:22:08.879Z,23.20
2018-06-01T16:24:38.073Z,24.77
2018-06-01T16:27:07.822Z,23.63
2018-06-01T16:29:37.043Z,22.57
2018-06-01T16:32:06.240Z,23.77
2018-06-01T16:34:35.741Z,24.70
2018-06-01T16:37:04.934Z,25.10
2018-06-01T16:39:34.066Z,25.87
2018-06-01T16:42:03.238Z,25.40
2018-06-01T16:44:32.436Z,26.80
2018-06-01T16:47:02.438Z,27.37
2018-06-01T16:49:32.283Z,29.00
2018-06-01T16:52:01.554Z,30.83
2018-06-01T16:54:30.725Z,29.07
2018-06-01T16:57:00.345Z,31.63
2018-06-01T16:59:29.523Z,32.73
2018-06-01T17:01:58.676Z,32.50
2018-06-01T17:04:28.110Z,30.00
2018-06-01T17:06:57.249Z,29.50
2018-06-01T17:09:26.385Z,28.17
2018-06-01T17:11:55.794Z,27.40
2018-06-01T17:14:24.925Z,24.00
2018-06-01T17:16:54.043Z,24.03
2018-06-01T17:19:23.185Z,23.53
2018-06-01T17:21:52.326Z,21.60
2018-06-01T17:24:21.507Z,22.67
2018-06-01T17:26:51.005Z,23.10
2018-06-01T17:29:20.133Z,21.53
2018-06-01T17:31:49.258Z,22.17
2018-06-01T17:34:18.500Z,22.03
2018-06-01T17:36:47.698Z,21.60
2018-06-01T17:39:16.846Z,21.50
2018-06-01T17:41:46.359Z,21.87
2018-06-01T17:44:15.508Z,19.20
2018-06-01T17:49:19.721Z,20.30
2018-06-01T17:51:48.921Z,18.20
2018-06-01T17:54:18.101Z,20.27
2018-06-01T17:56:47.977Z,19.43
2018-06-01T17:59:17.534Z,22.00
2018-06-01T18:01:46.777Z,21.67
2018-06-01T18:04:16.217Z,21.43
2018-06-01T18:06:45.455Z,20.90
2018-06-01T18:09:14.634Z,20.80
2018-06-01T18:11:46.016Z,20.40
2018-06-01T18:14:15.236Z,20.90
2018-06-01T18:16:44.378Z,18.97
2018-06-01T18:19:14.643Z,20.90
2018-06-01T18:21:43.998Z,20.37
2018-06-01T18:24:13.349Z,21.00
2018-06-01T18:29:38.104Z,20.17
2018-06-01T18:32:07.734Z,19.50
2018-06-01T18:34:36.998Z,19.87
2018-06-01T18:37:06.134Z,19.97
2018-06-01T18:39:35.734Z,20.47
2018-06-01T18:42:09.625Z,19.70
2018-06-01T18:44:39.021Z,21.80
2018-06-01T18:47:08.504Z,20.37
2018-06-01T18:49:37.937Z,19.40
2018-06-01T18:52:07.531Z,19.17
2018-06-01T18:54:36.677Z,17.67
2018-06-01T18:57:05.831Z,19.30
2018-06-01T18:59:36.370Z,18.53
2018-06-01T19:02:05.690Z,17.97
2018-06-01T19:04:34.889Z,18.20
2018-06-01T19:07:05.449Z,18.10
2018-06-01T19:09:34.654Z,19.33
2018-06-01T19:12:08.158Z,19.63
2018-06-01T19:17:12.020Z,19.90
2018-06-01T19:24:49.846Z,21.47
2018-06-01T19:29:53.135Z,21.10
2018-06-01T19:34:55.820Z,23.80
2018-06-01T19:37:25.078Z,22.90
2018-06-01T19:39:54.613Z,23.20
2018-06-01T19:42:23.953Z,24.03
2018-06-01T19:44:53.543Z,24.00
2018-06-01T19:47:22.709Z,25.83
2018-06-01T19:49:51.885Z,24.63
2018-06-01T19:52:21.502Z,25.60
2018-06-01T19:54:51.065Z,26.73
2018-06-01T19:57:20.223Z,24.50
2018-06-01T19:59:50.841Z,27.30
2018-06-01T20:02:20.017Z,29.03
2018-06-01T20:04:49.399Z,28.27
2018-06-01T20:07:18.634Z,27.40
2018-06-01T20:09:47.861Z,28.70
2018-06-01T20:12:17.035Z,28.80
2018-06-01T20:14:46.384Z,31.27
2018-06-01T20:17:15.879Z,31.20
2018-06-01T20:19:45.286Z,32.90
2018-06-01T20:22:15.015Z,33.37
2018-06-01T20:24:44.166Z,33.90
2018-06-01T20:27:13.494Z,35.57
2018-06-01T20:29:43.000Z,36.93
2018-06-01T20:32:12.244Z,33.17
2018-06-01T20:34:42.416Z,35.27
2018-06-01T20:37:12.433Z,34.57
2018-06-01T20:39:41.674Z,30.70
2018-06-01T20:42:10.882Z,30.37
2018-06-01T20:44:40.616Z,27.73
2018-06-01T20:47:12.658Z,24.80
2018-06-01T20:49:45.690Z,25.20
2018-06-01T20:52:18.978Z,24.23
2018-06-01T20:54:50.576Z,22.30
2018-06-01T20:57:28.004Z,23.60
2018-06-01T21:02:42.786Z,24.20
2018-06-01T21:05:13.533Z,25.37
2018-06-01T21:07:51.568Z,24.83
2018-06-01T21:10:22.539Z,25.00
2018-06-01T21:12:51.761Z,25.40
2018-06-01T21:18:10.364Z,26.37
2018-06-01T21:20:39.565Z,27.13
2018-06-01T21:23:08.729Z,27.43
2018-06-01T21:25:37.851Z,27.60
2018-06-01T21:28:07.486Z,29.53
2018-06-01T21:30:36.860Z,29.80
2018-06-01T21:33:06.464Z,30.53
2018-06-01T21:35:36.089Z,31.57
2018-06-01T21:38:05.213Z,31.33
2018-06-01T21:40:34.327Z,31.67
2018-06-01T21:43:03.939Z,32.20
2018-06-01T21:45:33.087Z,32.90
2018-06-01T21:48:02.214Z,33.00
2018-06-01T21:50:31.357Z,34.40
2018-06-01T21:53:01.078Z,35.03
2018-06-01T21:55:30.258Z,36.80
2018-06-01T21:57:59.722Z,38.00
2018-06-01T22:00:28.882Z,38.40
2018-06-01T22:02:58.066Z,38.53
2018-06-01T22:05:27.190Z,40.10
2018-06-01T22:07:56.318Z,37.50
2018-06-01T22:10:25.438Z,38.27
2018-06-01T22:12:54.870Z,37.67
2018-06-01T22:15:24.036Z,38.47
2018-06-01T22:17:53.181Z,38.70
2018-06-01T22:20:22.335Z,43.77
2018-06-01T22:22:51.524Z,39.00
2018-06-01T22:25:20.651Z,38.47
2018-06-01T22:27:49.799Z,39.87
2018-06-01T22:30:19.012Z,35.80
2018-06-01T22:32:48.137Z,37.50
2018-06-01T22:35:17.593Z,36.00
2018-06-01T22:38:00.495Z,36.00
2018-06-01T22:40:29.653Z,37.23
2018-06-01T22:42:58.780Z,36.73
2018-06-01T22:45:27.898Z,38.87
2018-06-01T22:47:57.467Z,35.10
2018-06-01T22:50:26.589Z,37.70
2018-06-01T22:52:55.732Z,37.30
2018-06-01T22:55:24.837Z,37.20
2018-06-01T22:57:53.977Z,39.03
2018-06-01T23:03:15.307Z,38.53
2018-06-01T23:05:44.451Z,37.63
2018-06-01T23:08:13.577Z,37.93
2018-06-01T23:10:42.707Z,38.60
2018-06-01T23:13:12.125Z,41.40
2018-06-01T23:15:41.238Z,41.37
2018-06-01T23:18:10.363Z,40.10
2018-06-01T23:20:39.761Z,38.30
2018-06-01T23:23:08.885Z,38.63
2018-06-01T23:25:38.006Z,39.97
2018-06-01T23:28:07.477Z,39.10
2018-06-01T23:30:37.249Z,41.23
2018-06-01T23:33:06.373Z,38.90
2018-06-01T23:35:35.509Z,39.00
2018-06-01T23:38:04.629Z,40.67
2018-06-01T23:40:33.756Z,39.90
2018-06-01T23:43:02.877Z,40.10
2018-06-01T23:45:31.993Z,40.90
2018-06-01T23:48:01.122Z,40.90
2018-06-01T23:50:30.523Z,40.17
2018-06-01T23:52:59.637Z,43.07
2018-06-01T23:55:28.757Z,44.87
2018-06-01T23:57:57.907Z,43.63
